sensor_id;sensor_type;location;lat;lon;timestamp;temperature;humidity
45807;DHT22;31507;51.494;7.518;2022-10-16T00:01:20;13.00;99.90
45807;DHT22;31507;51.494;7.518;2022-10-16T00:03:47;13.10;99.90
45807;DHT22;31507;51.494;7.518;2022-10-16T00:06:14;13.10;99.90
45807;DHT22;31507;51.494;7.518;2022-10-16T00:08:40;13.10;99.90
45807;DHT22;31507;51.494;7.518;2022-10-16T00:11:11;13.10;99.90
45807;DHT22;31507;51.494;7.518;2022-10-16T00:13:38;13.10;99.90
45807;DHT22;31507;51.494;7.518;2022-10-16T00:16:06;13.10;99.90
45807;DHT22;31507;51.494;7.518;2022-10-16T00:18:32;13.00;99.90
45807;DHT22;31507;51.494;7.518;2022-10-16T00:21:03;13.00;99.90
45807;DHT22;31507;51.494;7.518;2022-10-16T00:23:29;13.10;99.90
45807;DHT22;31507;51.494;7.518;2022-10-16T00:25:58;13.00;99.90
45807;DHT22;31507;51.494;7.518;2022-10-16T00:28:24;13.00;99.90
45807;DHT22;31507;51.494;7.518;2022-10-16T00:30:51;13.00;99.90
45807;DHT22;31507;51.494;7.518;2022-10-16T00:33:16;13.00;99.90
45807;DHT22;31507;51.494;7.518;2022-10-16T00:35:42;13.00;99.90
45807;DHT22;31507;51.494;7.518;2022-10-16T00:38:07;13.00;99.90
45807;DHT22;31507;51.494;7.518;2022-10-16T00:40:33;13.00;99.90
45807;DHT22;31507;51.494;7.518;2022-10-16T00:42:59;12.90;99.90
45807;DHT22;31507;51.494;7.518;2022-10-16T00:45:24;12.90;99.90
45807;DHT22;31507;51.494;7.518;2022-10-16T00:47:51;12.90;99.90
45807;DHT22;31507;51.494;7.518;2022-10-16T00:50:32;12.90;99.90
45807;DHT22;31507;51.494;7.518;2022-10-16T00:53:00;12.90;99.90
45807;DHT22;31507;51.494;7.518;2022-10-16T00:55:27;12.90;99.90
45807;DHT22;31507;51.494;7.518;2022-10-16T00:57:56;12.90;99.90
45807;DHT22;31507;51.494;7.518;2022-10-16T01:00:25;12.90;99.90
45807;DHT22;31507;51.494;7.518;2022-10-16T01:02:56;13.00;99.90
45807;DHT22;31507;51.494;7.518;2022-10-16T01:05:23;13.00;99.90
45807;DHT22;31507;51.494;7.518;2022-10-16T01:13:05;13.10;99.90
45807;DHT22;31507;51.494;7.518;2022-10-16T01:15:58;13.00;99.90
45807;DHT22;31507;51.494;7.518;2022-10-16T01:29:16;13.20;99.90
45807;DHT22;31507;51.494;7.518;2022-10-16T01:31:48;13.20;99.90
45807;DHT22;31507;51.494;7.518;2022-10-16T01:34:21;13.10;99.90
45807;DHT22;31507;51.494;7.518;2022-10-16T01:36:57;13.10;99.90
45807;DHT22;31507;51.494;7.518;2022-10-16T01:39:29;13.20;99.90
45807;DHT22;31507;51.494;7.518;2022-10-16T01:42:07;13.20;99.90
45807;DHT22;31507;51.494;7.518;2022-10-16T01:44:34;13.20;99.90
45807;DHT22;31507;51.494;7.518;2022-10-16T01:47:02;13.20;99.90
45807;DHT22;31507;51.494;7.518;2022-10-16T01:49:32;13.20;99.90
45807;DHT22;31507;51.494;7.518;2022-10-16T01:52:00;13.20;99.90
45807;DHT22;31507;51.494;7.518;2022-10-16T01:54:28;13.10;99.90
45807;DHT22;31507;51.494;7.518;2022-10-16T01:56:57;13.10;99.90
45807;DHT22;31507;51.494;7.518;2022-10-16T01:59:25;13.10;99.90
45807;DHT22;31507;51.494;7.518;2022-10-16T02:01:55;13.10;99.90
45807;DHT22;31507;51.494;7.518;2022-10-16T02:04:32;13.10;99.90
45807;DHT22;31507;51.494;7.518;2022-10-16T02:06:59;13.00;99.90
45807;DHT22;31507;51.494;7.518;2022-10-16T02:09:25;13.00;99.90
45807;DHT22;31507;51.494;7.518;2022-10-16T02:11:54;13.00;99.90
45807;DHT22;31507;51.494;7.518;2022-10-16T02:14:21;13.00;99.90
45807;DHT22;31507;51.494;7.518;2022-10-16T02:16:47;12.90;99.90
45807;DHT22;31507;51.494;7.518;2022-10-16T02:19:15;12.90;99.90
45807;DHT22;31507;51.494;7.518;2022-10-16T02:21:51;12.90;99.90
45807;DHT22;31507;51.494;7.518;2022-10-16T02:24:34;12.90;99.90
45807;DHT22;31507;51.494;7.518;2022-10-16T02:27:11;12.90;99.90
45807;DHT22;31507;51.494;7.518;2022-10-16T02:29:46;12.90;99.90
45807;DHT22;31507;51.494;7.518;2022-10-16T02:32:19;12.90;99.90
45807;DHT22;31507;51.494;7.518;2022-10-16T02:34:48;12.90;99.90
45807;DHT22;31507;51.494;7.518;2022-10-16T02:37:14;12.90;99.90
45807;DHT22;31507;51.494;7.518;2022-10-16T02:39:41;12.90;99.90
45807;DHT22;31507;51.494;7.518;2022-10-16T02:42:14;12.90;99.90
45807;DHT22;31507;51.494;7.518;2022-10-16T02:44:40;12.80;99.90
45807;DHT22;31507;51.494;7.518;2022-10-16T02:47:06;12.80;99.90
45807;DHT22;31507;51.494;7.518;2022-10-16T02:49:32;12.80;99.90
45807;DHT22;31507;51.494;7.518;2022-10-16T02:51:57;12.80;99.90
45807;DHT22;31507;51.494;7.518;2022-10-16T02:54:23;12.80;99.90
45807;DHT22;31507;51.494;7.518;2022-10-16T02:56:49;12.80;99.90
45807;DHT22;31507;51.494;7.518;2022-10-16T02:59:15;12.90;99.90
45807;DHT22;31507;51.494;7.518;2022-10-16T03:01:41;12.90;99.90
45807;DHT22;31507;51.494;7.518;2022-10-16T03:04:06;12.90;99.90
45807;DHT22;31507;51.494;7.518;2022-10-16T03:06:32;12.90;99.90
45807;DHT22;31507;51.494;7.518;2022-10-16T03:08:58;12.90;99.90
45807;DHT22;31507;51.494;7.518;2022-10-16T03:11:23;12.90;99.90
45807;DHT22;31507;51.494;7.518;2022-10-16T03:13:49;12.90;99.90
45807;DHT22;31507;51.494;7.518;2022-10-16T03:16:14;12.90;99.90
45807;DHT22;31507;51.494;7.518;2022-10-16T03:18:40;12.90;99.90
45807;DHT22;31507;51.494;7.518;2022-10-16T03:21:06;12.90;99.90
45807;DHT22;31507;51.494;7.518;2022-10-16T03:23:31;12.90;99.90
45807;DHT22;31507;51.494;7.518;2022-10-16T03:25:57;12.90;99.90
45807;DHT22;31507;51.494;7.518;2022-10-16T03:28:23;12.90;99.90
45807;DHT22;31507;51.494;7.518;2022-10-16T03:30:48;12.90;99.90
45807;DHT22;31507;51.494;7.518;2022-10-16T03:33:14;12.90;99.90
45807;DHT22;31507;51.494;7.518;2022-10-16T03:35:39;12.90;99.90
45807;DHT22;31507;51.494;7.518;2022-10-16T03:38:05;12.90;99.90
45807;DHT22;31507;51.494;7.518;2022-10-16T03:40:31;12.90;99.90
45807;DHT22;31507;51.494;7.518;2022-10-16T03:42:58;12.90;99.90
45807;DHT22;31507;51.494;7.518;2022-10-16T03:45:24;13.00;99.90
45807;DHT22;31507;51.494;7.518;2022-10-16T03:47:50;13.00;99.90
45807;DHT22;31507;51.494;7.518;2022-10-16T03:50:15;13.00;99.90
45807;DHT22;31507;51.494;7.518;2022-10-16T03:52:41;12.90;99.90
45807;DHT22;31507;51.494;7.518;2022-10-16T03:55:07;12.80;99.90
45807;DHT22;31507;51.494;7.518;2022-10-16T03:57:33;12.80;99.90
45807;DHT22;31507;51.494;7.518;2022-10-16T03:59:58;12.80;99.90
45807;DHT22;31507;51.494;7.518;2022-10-16T04:02:24;12.80;99.90
45807;DHT22;31507;51.494;7.518;2022-10-16T04:04:50;12.90;99.90
45807;DHT22;31507;51.494;7.518;2022-10-16T04:07:15;12.90;99.90
45807;DHT22;31507;51.494;7.518;2022-10-16T04:09:41;12.90;99.90
45807;DHT22;31507;51.494;7.518;2022-10-16T04:12:07;12.90;99.90
45807;DHT22;31507;51.494;7.518;2022-10-16T04:14:33;12.90;99.90
45807;DHT22;31507;51.494;7.518;2022-10-16T04:16:59;12.90;99.90
45807;DHT22;31507;51.494;7.518;2022-10-16T04:19:25;12.90;99.90
45807;DHT22;31507;51.494;7.518;2022-10-16T04:21:51;12.90;99.90
45807;DHT22;31507;51.494;7.518;2022-10-16T04:24:17;12.90;99.90
45807;DHT22;31507;51.494;7.518;2022-10-16T04:26:42;12.80;99.90
45807;DHT22;31507;51.494;7.518;2022-10-16T04:29:08;12.80;99.90
45807;DHT22;31507;51.494;7.518;2022-10-16T04:31:34;12.80;99.90
45807;DHT22;31507;51.494;7.518;2022-10-16T04:33:59;12.80;99.90
45807;DHT22;31507;51.494;7.518;2022-10-16T04:36:25;12.80;99.90
45807;DHT22;31507;51.494;7.518;2022-10-16T04:38:50;12.70;99.90
45807;DHT22;31507;51.494;7.518;2022-10-16T04:41:16;12.80;99.90
45807;DHT22;31507;51.494;7.518;2022-10-16T04:43:42;12.80;99.90
45807;DHT22;31507;51.494;7.518;2022-10-16T04:46:07;12.80;99.90
45807;DHT22;31507;51.494;7.518;2022-10-16T04:48:33;12.80;99.90
45807;DHT22;31507;51.494;7.518;2022-10-16T04:50:59;12.80;99.90
45807;DHT22;31507;51.494;7.518;2022-10-16T04:53:24;12.80;99.90
45807;DHT22;31507;51.494;7.518;2022-10-16T04:55:50;12.80;99.90
45807;DHT22;31507;51.494;7.518;2022-10-16T04:58:16;12.80;99.90
45807;DHT22;31507;51.494;7.518;2022-10-16T05:00:42;12.80;99.90
45807;DHT22;31507;51.494;7.518;2022-10-16T05:03:07;12.80;99.90
45807;DHT22;31507;51.494;7.518;2022-10-16T05:05:34;12.80;99.90
45807;DHT22;31507;51.494;7.518;2022-10-16T05:08:00;12.90;99.90
45807;DHT22;31507;51.494;7.518;2022-10-16T05:10:26;12.80;99.90
45807;DHT22;31507;51.494;7.518;2022-10-16T05:12:52;12.90;99.90
45807;DHT22;31507;51.494;7.518;2022-10-16T05:15:22;12.80;99.90
45807;DHT22;31507;51.494;7.518;2022-10-16T05:17:53;12.80;99.90
45807;DHT22;31507;51.494;7.518;2022-10-16T05:20:19;12.80;99.90
45807;DHT22;31507;51.494;7.518;2022-10-16T05:22:44;12.80;99.90
45807;DHT22;31507;51.494;7.518;2022-10-16T05:25:10;12.80;99.90
45807;DHT22;31507;51.494;7.518;2022-10-16T05:27:35;12.90;99.90
45807;DHT22;31507;51.494;7.518;2022-10-16T05:30:01;12.90;99.90
45807;DHT22;31507;51.494;7.518;2022-10-16T05:32:27;13.00;99.90
45807;DHT22;31507;51.494;7.518;2022-10-16T05:34:52;12.90;99.90
45807;DHT22;31507;51.494;7.518;2022-10-16T05:37:18;12.90;99.90
45807;DHT22;31507;51.494;7.518;2022-10-16T05:39:44;13.00;99.90
45807;DHT22;31507;51.494;7.518;2022-10-16T05:42:10;13.00;99.90
45807;DHT22;31507;51.494;7.518;2022-10-16T05:44:35;13.00;99.90
45807;DHT22;31507;51.494;7.518;2022-10-16T05:47:01;13.00;99.90
45807;DHT22;31507;51.494;7.518;2022-10-16T05:49:27;13.00;99.90
45807;DHT22;31507;51.494;7.518;2022-10-16T05:51:52;13.00;99.90
45807;DHT22;31507;51.494;7.518;2022-10-16T05:54:18;13.10;99.90
45807;DHT22;31507;51.494;7.518;2022-10-16T05:56:44;13.00;99.90
45807;DHT22;31507;51.494;7.518;2022-10-16T05:59:09;13.10;99.90
45807;DHT22;31507;51.494;7.518;2022-10-16T06:01:35;13.10;99.90
45807;DHT22;31507;51.494;7.518;2022-10-16T06:04:01;13.10;99.90
45807;DHT22;31507;51.494;7.518;2022-10-16T06:06:28;13.00;99.90
45807;DHT22;31507;51.494;7.518;2022-10-16T06:08:56;13.10;99.90
45807;DHT22;31507;51.494;7.518;2022-10-16T06:11:27;13.00;99.90
45807;DHT22;31507;51.494;7.518;2022-10-16T06:13:55;13.00;99.90
45807;DHT22;31507;51.494;7.518;2022-10-16T06:16:26;13.10;99.90
45807;DHT22;31507;51.494;7.518;2022-10-16T06:18:53;13.10;99.90
45807;DHT22;31507;51.494;7.518;2022-10-16T06:21:21;13.20;99.90
45807;DHT22;31507;51.494;7.518;2022-10-16T06:23:48;13.10;99.90
45807;DHT22;31507;51.494;7.518;2022-10-16T06:26:16;13.10;99.90
45807;DHT22;31507;51.494;7.518;2022-10-16T06:28:42;13.10;99.90
45807;DHT22;31507;51.494;7.518;2022-10-16T06:31:09;13.10;99.90
45807;DHT22;31507;51.494;7.518;2022-10-16T06:33:36;13.20;99.90
45807;DHT22;31507;51.494;7.518;2022-10-16T06:36:16;13.10;99.90
45807;DHT22;31507;51.494;7.518;2022-10-16T06:38:43;13.10;99.90
45807;DHT22;31507;51.494;7.518;2022-10-16T06:41:12;13.10;99.90
45807;DHT22;31507;51.494;7.518;2022-10-16T06:43:38;13.20;99.90
45807;DHT22;31507;51.494;7.518;2022-10-16T06:46:05;13.20;99.90
45807;DHT22;31507;51.494;7.518;2022-10-16T06:48:33;13.20;99.90
45807;DHT22;31507;51.494;7.518;2022-10-16T06:51:03;13.30;99.90
45807;DHT22;31507;51.494;7.518;2022-10-16T06:53:31;13.40;99.90
45807;DHT22;31507;51.494;7.518;2022-10-16T06:55:57;13.50;99.90
45807;DHT22;31507;51.494;7.518;2022-10-16T06:58:23;13.50;99.90
45807;DHT22;31507;51.494;7.518;2022-10-16T07:00:54;13.50;99.90
45807;DHT22;31507;51.494;7.518;2022-10-16T07:03:20;13.60;99.90
45807;DHT22;31507;51.494;7.518;2022-10-16T07:05:45;13.60;99.90
45807;DHT22;31507;51.494;7.518;2022-10-16T07:08:11;13.60;99.90
45807;DHT22;31507;51.494;7.518;2022-10-16T07:10:37;13.60;99.90
45807;DHT22;31507;51.494;7.518;2022-10-16T07:13:02;13.70;99.90
45807;DHT22;31507;51.494;7.518;2022-10-16T07:15:28;13.80;99.90
45807;DHT22;31507;51.494;7.518;2022-10-16T07:18:01;13.90;99.90
45807;DHT22;31507;51.494;7.518;2022-10-16T07:20:27;14.00;99.90
45807;DHT22;31507;51.494;7.518;2022-10-16T07:22:52;14.10;99.90
45807;DHT22;31507;51.494;7.518;2022-10-16T07:25:18;14.20;99.90
45807;DHT22;31507;51.494;7.518;2022-10-16T07:27:44;14.30;99.90
45807;DHT22;31507;51.494;7.518;2022-10-16T07:30:09;14.30;99.90
45807;DHT22;31507;51.494;7.518;2022-10-16T07:32:35;14.40;99.90
45807;DHT22;31507;51.494;7.518;2022-10-16T07:35:01;14.30;99.90
45807;DHT22;31507;51.494;7.518;2022-10-16T07:37:26;14.30;99.90
45807;DHT22;31507;51.494;7.518;2022-10-16T07:39:52;14.30;99.90
45807;DHT22;31507;51.494;7.518;2022-10-16T07:42:18;14.30;99.90
45807;DHT22;31507;51.494;7.518;2022-10-16T07:44:45;14.20;99.90
45807;DHT22;31507;51.494;7.518;2022-10-16T07:47:10;14.10;99.90
45807;DHT22;31507;51.494;7.518;2022-10-16T07:49:36;14.20;99.90
45807;DHT22;31507;51.494;7.518;2022-10-16T07:52:02;14.10;99.90
45807;DHT22;31507;51.494;7.518;2022-10-16T07:54:27;14.10;99.90
45807;DHT22;31507;51.494;7.518;2022-10-16T07:56:53;14.10;99.90
45807;DHT22;31507;51.494;7.518;2022-10-16T07:59:19;14.30;99.90
45807;DHT22;31507;51.494;7.518;2022-10-16T08:01:44;14.50;99.90
45807;DHT22;31507;51.494;7.518;2022-10-16T08:04:10;14.80;99.90
45807;DHT22;31507;51.494;7.518;2022-10-16T08:06:37;15.00;99.90
45807;DHT22;31507;51.494;7.518;2022-10-16T08:09:04;15.00;99.90
45807;DHT22;31507;51.494;7.518;2022-10-16T08:11:29;15.20;99.90
45807;DHT22;31507;51.494;7.518;2022-10-16T08:13:55;15.60;99.90
45807;DHT22;31507;51.494;7.518;2022-10-16T08:16:21;16.00;99.90
45807;DHT22;31507;51.494;7.518;2022-10-16T08:18:47;16.40;99.90
45807;DHT22;31507;51.494;7.518;2022-10-16T08:21:15;16.60;99.90
45807;DHT22;31507;51.494;7.518;2022-10-16T08:23:41;16.70;99.90
45807;DHT22;31507;51.494;7.518;2022-10-16T08:26:07;17.00;99.90
45807;DHT22;31507;51.494;7.518;2022-10-16T08:28:34;17.30;99.90
45807;DHT22;31507;51.494;7.518;2022-10-16T08:31:11;17.60;99.90
45807;DHT22;31507;51.494;7.518;2022-10-16T08:33:38;17.60;99.90
45807;DHT22;31507;51.494;7.518;2022-10-16T08:36:05;17.70;99.90
45807;DHT22;31507;51.494;7.518;2022-10-16T08:38:31;17.80;99.90
45807;DHT22;31507;51.494;7.518;2022-10-16T08:41:27;18.10;99.90
45807;DHT22;31507;51.494;7.518;2022-10-16T08:49:16;18.80;99.90
45807;DHT22;31507;51.494;7.518;2022-10-16T08:51:44;18.90;99.90
45807;DHT22;31507;51.494;7.518;2022-10-16T08:54:20;19.00;99.90
45807;DHT22;31507;51.494;7.518;2022-10-16T08:56:46;19.10;99.90
45807;DHT22;31507;51.494;7.518;2022-10-16T08:59:16;19.00;99.90
45807;DHT22;31507;51.494;7.518;2022-10-16T09:01:45;18.90;99.90
45807;DHT22;31507;51.494;7.518;2022-10-16T09:07:02;19.40;99.30
45807;DHT22;31507;51.494;7.518;2022-10-16T09:12:32;19.90;96.00
45807;DHT22;31507;51.494;7.518;2022-10-16T09:15:07;20.10;96.60
45807;DHT22;31507;51.494;7.518;2022-10-16T09:17:48;20.30;95.50
45807;DHT22;31507;51.494;7.518;2022-10-16T09:20:20;20.70;95.30
45807;DHT22;31507;51.494;7.518;2022-10-16T09:22:50;21.10;93.30
45807;DHT22;31507;51.494;7.518;2022-10-16T09:25:20;20.90;92.50
45807;DHT22;31507;51.494;7.518;2022-10-16T09:27:48;20.70;93.00
45807;DHT22;31507;51.494;7.518;2022-10-16T09:30:17;20.90;91.80
45807;DHT22;31507;51.494;7.518;2022-10-16T09:32:44;20.60;92.40
45807;DHT22;31507;51.494;7.518;2022-10-16T09:35:14;20.50;92.40
45807;DHT22;31507;51.494;7.518;2022-10-16T09:37:43;20.70;91.90
45807;DHT22;31507;51.494;7.518;2022-10-16T09:40:35;21.00;90.30
45807;DHT22;31507;51.494;7.518;2022-10-16T09:45:43;20.90;90.60
45807;DHT22;31507;51.494;7.518;2022-10-16T09:48:19;20.10;91.10
45807;DHT22;31507;51.494;7.518;2022-10-16T09:50:59;20.20;91.50
45807;DHT22;31507;51.494;7.518;2022-10-16T09:53:46;20.20;91.20
45807;DHT22;31507;51.494;7.518;2022-10-16T09:56:22;19.80;92.00
45807;DHT22;31507;51.494;7.518;2022-10-16T09:58:54;20.40;90.50
45807;DHT22;31507;51.494;7.518;2022-10-16T10:01:21;20.70;90.70
45807;DHT22;31507;51.494;7.518;2022-10-16T10:03:48;20.60;90.20
45807;DHT22;31507;51.494;7.518;2022-10-16T10:06:22;20.20;91.20
45807;DHT22;31507;51.494;7.518;2022-10-16T10:09:15;19.90;91.60
45807;DHT22;31507;51.494;7.518;2022-10-16T10:14:18;19.20;92.50
45807;DHT22;31507;51.494;7.518;2022-10-16T10:16:45;19.20;92.10
45807;DHT22;31507;51.494;7.518;2022-10-16T10:19:20;18.80;93.00
45807;DHT22;31507;51.494;7.518;2022-10-16T10:21:46;18.20;93.70
45807;DHT22;31507;51.494;7.518;2022-10-16T10:24:14;17.80;94.90
45807;DHT22;31507;51.494;7.518;2022-10-16T10:26:57;17.40;95.80
45807;DHT22;31507;51.494;7.518;2022-10-16T10:35:13;18.70;94.00
45807;DHT22;31507;51.494;7.518;2022-10-16T10:38:16;18.90;93.20
45807;DHT22;31507;51.494;7.518;2022-10-16T10:41:01;19.30;93.00
45807;DHT22;31507;51.494;7.518;2022-10-16T10:46:12;20.10;92.30
45807;DHT22;31507;51.494;7.518;2022-10-16T10:48:47;20.40;91.70
45807;DHT22;31507;51.494;7.518;2022-10-16T10:59:08;19.30;92.20
45807;DHT22;31507;51.494;7.518;2022-10-16T11:07:02;19.60;92.50
45807;DHT22;31507;51.494;7.518;2022-10-16T11:09:37;19.30;92.60
45807;DHT22;31507;51.494;7.518;2022-10-16T11:12:21;19.10;92.50
45807;DHT22;31507;51.494;7.518;2022-10-16T11:20:34;19.90;91.20
45807;DHT22;31507;51.494;7.518;2022-10-16T11:23:11;19.90;91.20
45807;DHT22;31507;51.494;7.518;2022-10-16T11:25:40;19.70;92.50
45807;DHT22;31507;51.494;7.518;2022-10-16T11:39:22;19.50;91.80
45807;DHT22;31507;51.494;7.518;2022-10-16T11:47:25;19.60;91.20
45807;DHT22;31507;51.494;7.518;2022-10-16T11:49:58;19.90;90.10
45807;DHT22;31507;51.494;7.518;2022-10-16T11:52:26;20.00;90.70
45807;DHT22;31507;51.494;7.518;2022-10-16T11:55:05;20.10;89.60
45807;DHT22;31507;51.494;7.518;2022-10-16T11:57:39;20.20;90.00
45807;DHT22;31507;51.494;7.518;2022-10-16T12:02:50;20.30;89.70
45807;DHT22;31507;51.494;7.518;2022-10-16T12:10:21;20.30;87.80
45807;DHT22;31507;51.494;7.518;2022-10-16T12:12:47;20.10;87.20
45807;DHT22;31507;51.494;7.518;2022-10-16T12:15:20;20.10;88.10
45807;DHT22;31507;51.494;7.518;2022-10-16T12:17:46;20.10;86.40
45807;DHT22;31507;51.494;7.518;2022-10-16T12:22:47;20.10;87.90
45807;DHT22;31507;51.494;7.518;2022-10-16T12:25:27;19.90;88.70
45807;DHT22;31507;51.494;7.518;2022-10-16T12:30:41;19.90;88.30
45807;DHT22;31507;51.494;7.518;2022-10-16T12:33:27;20.10;88.80
45807;DHT22;31507;51.494;7.518;2022-10-16T12:35:53;20.40;88.60
45807;DHT22;31507;51.494;7.518;2022-10-16T12:38:48;20.60;88.10
45807;DHT22;31507;51.494;7.518;2022-10-16T12:41:25;20.40;86.50
45807;DHT22;31507;51.494;7.518;2022-10-16T12:43:52;20.10;87.70
45807;DHT22;31507;51.494;7.518;2022-10-16T12:48:44;20.00;87.60
45807;DHT22;31507;51.494;7.518;2022-10-16T12:59:59;20.40;84.50
45807;DHT22;31507;51.494;7.518;2022-10-16T13:13:59;19.70;84.70
45807;DHT22;31507;51.494;7.518;2022-10-16T13:22:32;19.30;87.40
45807;DHT22;31507;51.494;7.518;2022-10-16T13:27:53;19.20;87.50
45807;DHT22;31507;51.494;7.518;2022-10-16T13:30:25;19.50;87.60
45807;DHT22;31507;51.494;7.518;2022-10-16T13:33:13;19.80;87.90
45807;DHT22;31507;51.494;7.518;2022-10-16T13:35:48;20.00;86.60
45807;DHT22;31507;51.494;7.518;2022-10-16T13:38:17;20.00;86.10
45807;DHT22;31507;51.494;7.518;2022-10-16T13:41:01;20.10;86.30
45807;DHT22;31507;51.494;7.518;2022-10-16T13:43:51;20.20;86.00
45807;DHT22;31507;51.494;7.518;2022-10-16T13:46:23;20.10;86.70
45807;DHT22;31507;51.494;7.518;2022-10-16T13:49:24;19.80;87.10
45807;DHT22;31507;51.494;7.518;2022-10-16T13:51:57;19.60;87.90
45807;DHT22;31507;51.494;7.518;2022-10-16T13:54:27;19.70;87.60
45807;DHT22;31507;51.494;7.518;2022-10-16T13:56:54;19.90;88.70
45807;DHT22;31507;51.494;7.518;2022-10-16T13:59:34;20.20;87.80
45807;DHT22;31507;51.494;7.518;2022-10-16T14:02:10;20.20;87.20
45807;DHT22;31507;51.494;7.518;2022-10-16T14:04:40;20.30;86.00
45807;DHT22;31507;51.494;7.518;2022-10-16T14:07:23;20.50;86.90
45807;DHT22;31507;51.494;7.518;2022-10-16T14:09:50;20.40;86.80
45807;DHT22;31507;51.494;7.518;2022-10-16T14:12:16;20.30;86.50
45807;DHT22;31507;51.494;7.518;2022-10-16T14:14:47;20.00;87.20
45807;DHT22;31507;51.494;7.518;2022-10-16T14:17:31;19.80;86.40
45807;DHT22;31507;51.494;7.518;2022-10-16T14:19:59;19.50;87.80
45807;DHT22;31507;51.494;7.518;2022-10-16T14:24:59;19.30;88.10
45807;DHT22;31507;51.494;7.518;2022-10-16T14:30:12;19.10;88.80
45807;DHT22;31507;51.494;7.518;2022-10-16T14:32:41;18.90;89.60
45807;DHT22;31507;51.494;7.518;2022-10-16T14:37:58;18.80;90.10
45807;DHT22;31507;51.494;7.518;2022-10-16T14:40:30;18.80;90.10
45807;DHT22;31507;51.494;7.518;2022-10-16T14:42:56;18.70;90.30
45807;DHT22;31507;51.494;7.518;2022-10-16T14:45:25;18.60;90.50
45807;DHT22;31507;51.494;7.518;2022-10-16T14:47:55;18.40;90.70
45807;DHT22;31507;51.494;7.518;2022-10-16T14:50:21;18.30;91.10
45807;DHT22;31507;51.494;7.518;2022-10-16T14:52:47;18.10;91.40
45807;DHT22;31507;51.494;7.518;2022-10-16T14:55:13;18.00;91.80
45807;DHT22;31507;51.494;7.518;2022-10-16T14:57:39;18.00;92.00
45807;DHT22;31507;51.494;7.518;2022-10-16T15:00:20;18.00;92.20
45807;DHT22;31507;51.494;7.518;2022-10-16T15:02:48;18.10;92.30
45807;DHT22;31507;51.494;7.518;2022-10-16T15:05:21;18.10;92.80
45807;DHT22;31507;51.494;7.518;2022-10-16T15:07:48;18.20;93.30
45807;DHT22;31507;51.494;7.518;2022-10-16T15:10:19;18.20;93.00
45807;DHT22;31507;51.494;7.518;2022-10-16T15:12:45;18.10;93.10
45807;DHT22;31507;51.494;7.518;2022-10-16T15:15:37;18.00;93.40
45807;DHT22;31507;51.494;7.518;2022-10-16T15:18:04;17.90;93.60
45807;DHT22;31507;51.494;7.518;2022-10-16T15:20:32;17.80;94.20
45807;DHT22;31507;51.494;7.518;2022-10-16T15:23:01;17.70;94.70
45807;DHT22;31507;51.494;7.518;2022-10-16T15:28:06;17.40;96.30
45807;DHT22;31507;51.494;7.518;2022-10-16T15:30:32;17.20;97.00
45807;DHT22;31507;51.494;7.518;2022-10-16T15:32:58;17.00;97.70
45807;DHT22;31507;51.494;7.518;2022-10-16T15:35:24;16.90;98.90
45807;DHT22;31507;51.494;7.518;2022-10-16T15:37:50;16.80;99.10
45807;DHT22;31507;51.494;7.518;2022-10-16T15:40:16;16.70;99.90
45807;DHT22;31507;51.494;7.518;2022-10-16T15:42:42;16.70;99.90
45807;DHT22;31507;51.494;7.518;2022-10-16T15:45:09;16.60;99.90
45807;DHT22;31507;51.494;7.518;2022-10-16T15:47:35;16.50;99.90
45807;DHT22;31507;51.494;7.518;2022-10-16T15:50:01;16.50;99.90
45807;DHT22;31507;51.494;7.518;2022-10-16T15:52:26;16.60;99.90
45807;DHT22;31507;51.494;7.518;2022-10-16T15:54:54;16.60;99.90
45807;DHT22;31507;51.494;7.518;2022-10-16T15:57:19;16.50;99.90
45807;DHT22;31507;51.494;7.518;2022-10-16T15:59:45;16.50;99.90
45807;DHT22;31507;51.494;7.518;2022-10-16T16:02:11;16.50;99.90
45807;DHT22;31507;51.494;7.518;2022-10-16T16:04:36;16.50;99.90
45807;DHT22;31507;51.494;7.518;2022-10-16T16:07:02;16.50;99.90
45807;DHT22;31507;51.494;7.518;2022-10-16T16:09:31;16.50;99.90
45807;DHT22;31507;51.494;7.518;2022-10-16T16:11:56;16.40;99.90
45807;DHT22;31507;51.494;7.518;2022-10-16T16:14:24;16.50;99.90
45807;DHT22;31507;51.494;7.518;2022-10-16T16:16:51;16.50;99.90
45807;DHT22;31507;51.494;7.518;2022-10-16T16:19:16;16.50;99.90
45807;DHT22;31507;51.494;7.518;2022-10-16T16:21:46;16.50;99.90
45807;DHT22;31507;51.494;7.518;2022-10-16T16:24:12;16.50;99.90
45807;DHT22;31507;51.494;7.518;2022-10-16T16:26:37;16.50;99.90
45807;DHT22;31507;51.494;7.518;2022-10-16T16:29:05;16.50;99.90
45807;DHT22;31507;51.494;7.518;2022-10-16T16:31:32;16.50;99.90
45807;DHT22;31507;51.494;7.518;2022-10-16T16:33:59;16.50;99.90
45807;DHT22;31507;51.494;7.518;2022-10-16T16:36:25;16.50;99.90
45807;DHT22;31507;51.494;7.518;2022-10-16T16:38:51;16.60;99.90
45807;DHT22;31507;51.494;7.518;2022-10-16T16:41:22;16.60;99.90
45807;DHT22;31507;51.494;7.518;2022-10-16T16:43:48;16.60;99.90
45807;DHT22;31507;51.494;7.518;2022-10-16T16:46:16;16.50;99.90
45807;DHT22;31507;51.494;7.518;2022-10-16T16:48:42;16.60;99.90
45807;DHT22;31507;51.494;7.518;2022-10-16T16:51:14;16.60;99.90
45807;DHT22;31507;51.494;7.518;2022-10-16T16:53:42;16.50;99.90
45807;DHT22;31507;51.494;7.518;2022-10-16T16:56:08;16.40;99.90
45807;DHT22;31507;51.494;7.518;2022-10-16T16:58:34;16.30;99.90
45807;DHT22;31507;51.494;7.518;2022-10-16T17:01:01;16.20;99.90
45807;DHT22;31507;51.494;7.518;2022-10-16T17:03:34;16.10;99.90
45807;DHT22;31507;51.494;7.518;2022-10-16T17:06:02;16.10;99.90
45807;DHT22;31507;51.494;7.518;2022-10-16T17:08:28;16.00;99.90
45807;DHT22;31507;51.494;7.518;2022-10-16T17:10:55;15.90;99.90
45807;DHT22;31507;51.494;7.518;2022-10-16T17:13:23;15.80;99.90
45807;DHT22;31507;51.494;7.518;2022-10-16T17:15:50;15.70;99.90
45807;DHT22;31507;51.494;7.518;2022-10-16T17:18:16;15.60;99.90
45807;DHT22;31507;51.494;7.518;2022-10-16T17:20:42;15.60;99.90
45807;DHT22;31507;51.494;7.518;2022-10-16T17:23:09;15.50;99.90
45807;DHT22;31507;51.494;7.518;2022-10-16T17:25:37;15.40;99.90
45807;DHT22;31507;51.494;7.518;2022-10-16T17:28:03;15.30;99.90
45807;DHT22;31507;51.494;7.518;2022-10-16T17:30:30;15.30;99.90
45807;DHT22;31507;51.494;7.518;2022-10-16T17:32:55;15.30;99.90
45807;DHT22;31507;51.494;7.518;2022-10-16T17:35:21;15.30;99.90
45807;DHT22;31507;51.494;7.518;2022-10-16T17:37:47;15.20;99.90
45807;DHT22;31507;51.494;7.518;2022-10-16T17:40:12;15.30;99.90
45807;DHT22;31507;51.494;7.518;2022-10-16T17:42:38;15.30;99.90
45807;DHT22;31507;51.494;7.518;2022-10-16T17:45:04;15.30;99.90
45807;DHT22;31507;51.494;7.518;2022-10-16T17:47:29;15.30;99.90
45807;DHT22;31507;51.494;7.518;2022-10-16T17:49:55;15.30;99.90
45807;DHT22;31507;51.494;7.518;2022-10-16T17:52:23;15.30;99.90